world map with IWJ marked

IWJ - Airport

This information may not be accurate or current and is not valid for navigation or flight planning. No warranty of fitness for any purpose is made or implied.

flag of Shimaneflag of Japan

Donate via PayPal

Additional information is available on the NEW Great Circle Mapper

Location
City:  Iwami, Shimane, Japan
Near (Alt.):Masuda
Name:Iwami Airport
ICAO / IATA:RJOW / IWJ

Details
Type:Airport (Aerodrome, Airfield)
Latitude:34°40'35"N (34.676389)
Longitude:131°47'25"E (131.790278)
Datum:WGS 1984
Elevation:184 ft (56 m)
Runways:1
Longest:6562 × 148 ft (2000 × 45 m)

Time
Timezone:UTC+9 (DST+11)
Local Time:

Weather
METAR:RJOW  161000Z 17005KT 9999 FEW030 SCT110 BKN130 13/10 Q1018

Related Locations
Nearby:
Farthest:SUEO: 12166 mi / 19579 km
Montevideo [Montevideo UIR], UY

Find:

   beyond  
but within

Other Information
Maps:
Sources:

  


 


Great Circle Mapper   Great Circle Mapper
Great Circle Mapper FAQ   Great Circle Mapper FAQ
  Karl's Home Page
KLSē   KLSē Home
   GC on Facebook
Airlines of the World   Airlines of the World
Donate via PayPal


Copyright © 2004-2018, Karl L. Swartz. All rights reserved.
All trademarks mentioned herein belong to their respective owners.

Please see credits for attribution and copyright information.

Karl Swartz <karl@kls2.com>
  Powered by FreeBSD
Valid HTML 4.01!
Labeled with ICRA
hCard Microformat
Geo Microformat